Time;durP1;ratioP1;P1;durP2;ratioP2;P2;SDS_P1;SDS_P2;PMS_P1;PMS_P2;Temp;Humidity;BMP_temperature;BMP_pressure;BME280_temperature;BME280_humidity;BME280_pressure;Samples;Min_cycle;Max_cycle;Signal;HPM_P1;HPM_P2
2022/09/22 00:00:03;;;;;;;388.13;263.77;;;;;;;14.10;61.11;99707.41;344686;28;1606;-79
2022/09/22 00:00:13;;;;;;;387.90;267.30;;;;;;;14.12;61.19;99716.91;342072;28;1345;-79
2022/09/22 00:00:24;;;;;;;389.30;269.10;;;;;;;14.14;61.19;99704.53;343502;28;1266;-79
2022/09/22 00:00:34;;;;;;;390.73;272.33;;;;;;;14.14;61.67;99704.53;347459;28;1248;-79
2022/09/22 00:01:08;;;;;;;391.63;273.50;;;;;;;14.13;61.32;99707.22;346647;28;1201;-79
2022/09/22 00:01:22;;;;;;;374.60;256.85;;;;;;;14.13;61.11;99707.22;344953;28;876;-78
2022/09/22 00:01:37;;;;;;;379.90;260.98;;;;;;;14.11;61.64;99709.94;342284;28;1459;-80
2022/09/22 00:01:49;;;;;;;381.52;261.75;;;;;;;14.12;61.29;99708.16;344677;28;1041;-79
2022/09/22 00:01:59;;;;;;;382.28;261.06;;;;;;;14.10;61.09;99712.66;346335;28;956;-79
2022/09/22 00:02:09;;;;;;;384.40;263.47;;;;;;;14.09;61.01;99717.06;343615;28;1253;-79
2022/09/22 00:02:20;;;;;;;384.47;263.63;;;;;;;14.07;61.03;99711.03;345013;28;1272;-79
2022/09/22 00:02:30;;;;;;;384.38;263.33;;;;;;;14.07;61.34;99705.78;344715;28;1484;-79
2022/09/22 00:02:41;;;;;;;385.27;261.47;;;;;;;14.06;60.80;99709.34;340837;28;1601;-79
2022/09/22 00:02:55;;;;;;;384.35;259.75;;;;;;;14.06;61.49;99708.50;346472;28;1370;-79
2022/09/22 00:03:05;;;;;;;385.08;264.90;;;;;;;14.06;61.50;99701.44;342115;28;1294;-79
2022/09/22 00:03:15;;;;;;;385.83;268.40;;;;;;;14.04;61.67;99703.31;339748;29;1422;-79
2022/09/22 00:03:30;;;;;;;384.85;264.00;;;;;;;14.08;60.94;99710.09;340991;28;1235;-79
2022/09/22 00:03:41;;;;;;;382.92;264.75;;;;;;;14.12;61.19;99705.53;341288;29;1328;-80
2022/09/22 00:03:55;;;;;;;385.67;270.45;;;;;;;14.12;61.25;99711.66;339614;29;1332;-80
2022/09/22 00:04:07;;;;;;;384.10;261.73;;;;;;;14.12;61.65;99714.28;338746;29;1039;-80
2022/09/22 00:04:18;;;;;;;385.83;267.48;;;;;;;14.13;60.83;99708.09;334007;29;1480;-79
2022/09/22 00:04:28;;;;;;;386.40;270.07;;;;;;;14.14;61.32;99711.56;336391;29;1353;-79
2022/09/22 00:04:38;;;;;;;386.75;265.63;;;;;;;14.15;60.96;99705.38;335779;29;1290;-79
2022/09/22 00:04:49;;;;;;;387.03;266.63;;;;;;;14.14;61.15;99708.94;336996;29;1381;-79
2022/09/22 00:04:59;;;;;;;389.58;269.40;;;;;;;14.12;61.33;99705.53;338159;29;1566;-79
2022/09/22 00:05:10;;;;;;;388.67;270.77;;;;;;;14.13;61.10;99715.97;338288;29;1237;-79
2022/09/22 00:05:23;;;;;;;386.17;265.40;;;;;;;14.09;61.49;99706.53;339551;29;1365;-79
2022/09/22 00:05:34;;;;;;;381.40;256.50;;;;;;;14.08;60.83;99714.53;337115;29;1369;-78
2022/09/22 00:05:44;;;;;;;382.97;260.67;;;;;;;14.07;61.40;99708.41;334907;29;1058;-78
2022/09/22 00:05:59;;;;;;;383.33;260.02;;;;;;;14.05;61.34;99710.28;337100;29;886;-78
2022/09/22 00:06:12;;;;;;;385.75;263.75;;;;;;;14.05;61.67;99709.41;335837;29;1293;-78
2022/09/22 00:06:24;;;;;;;386.88;269.63;;;;;;;14.07;61.48;99707.56;329566;29;1415;-78
2022/09/22 00:06:37;;;;;;;388.08;273.80;;;;;;;14.08;61.63;99706.63;331486;29;1831;-78
2022/09/22 00:06:50;;;;;;;390.40;272.48;;;;;;;14.07;61.40;99713.66;332928;29;2091;-78
2022/09/22 00:07:00;;;;;;;387.85;265.85;;;;;;;14.08;61.35;99704.00;331995;29;2113;-78
2022/09/22 00:07:11;;;;;;;386.07;262.10;;;;;;;14.10;61.33;99708.25;334504;29;878;-78
2022/09/22 00:07:21;;;;;;;385.55;262.33;;;;;;;14.11;61.34;99704.69;328424;30;1625;-79
2022/09/22 00:07:32;;;;;;;386.42;261.73;;;;;;;14.12;61.26;99710.78;328399;29;1661;-79
2022/09/22 00:07:42;;;;;;;386.47;259.70;;;;;;;14.14;61.62;99712.41;328695;29;1202;-80
2022/09/22 00:07:53;;;;;;;385.70;257.60;;;;;;;14.13;61.09;99708.09;332158;29;1253;-80
2022/09/22 00:08:04;;;;;;;385.98;260.27;;;;;;;14.14;61.15;99707.16;330736;29;1485;-80
2022/09/22 00:08:14;;;;;;;388.63;268.87;;;;;;;14.14;61.04;99707.16;326418;30;1397;-80
2022/09/22 00:08:26;;;;;;;390.00;269.98;;;;;;;14.10;61.11;99705.63;322325;30;1343;-80
2022/09/22 00:08:37;;;;;;;390.15;270.33;;;;;;;14.11;60.98;99703.84;323818;30;1071;-80
2022/09/22 00:08:50;;;;;;;386.42;261.00;;;;;;;14.11;61.06;99712.56;322837;30;2388;-79
2022/09/22 00:09:00;;;;;;;384.52;255.30;;;;;;;14.12;61.21;99710.78;319005;30;2488;-79
2022/09/22 00:09:12;;;;;;;385.73;261.00;;;;;;;14.12;60.92;99711.66;314812;30;2800;-79
2022/09/22 00:09:22;;;;;;;386.98;263.45;;;;;;;14.14;61.07;99699.25;318021;31;1655;-79
2022/09/22 00:09:33;;;;;;;385.73;258.92;;;;;;;14.13;61.67;99702.81;318387;30;3104;-79
2022/09/22 00:09:43;;;;;;;382.77;251.47;;;;;;;14.14;61.27;99715.03;318783;30;1798;-79
2022/09/22 00:09:53;;;;;;;381.65;251.45;;;;;;;14.14;61.49;99709.78;317598;31;1259;-79
2022/09/22 00:10:06;;;;;;;380.60;251.83;;;;;;;14.10;61.33;99702.13;318445;31;1266;-79
2022/09/22 00:10:17;;;;;;;381.17;253.15;;;;;;;14.11;61.00;99701.19;312149;31;1464;-79
2022/09/22 00:10:27;;;;;;;381.52;250.27;;;;;;;14.12;61.24;99703.75;309152;31;2258;-79
2022/09/22 00:10:38;;;;;;;382.27;251.20;;;;;;;14.11;61.15;99702.06;308670;32;1328;-79
2022/09/22 00:10:58;;;;;;;384.17;258.05;;;;;;;14.12;61.20;99710.78;306615;32;3020;-78
2022/09/22 00:11:16;;;;;;;384.88;262.35;;;;;;;14.09;61.66;99706.53;306443;32;870;-78
2022/09/22 00:11:28;;;;;;;381.00;256.33;;;;;;;14.10;61.38;99705.63;302644;32;3207;-80
2022/09/22 00:11:41;;;;;;;381.30;253.95;;;;;;;14.10;61.54;99702.97;297493;33;1442;-79
2022/09/22 00:11:52;;;;;;;383.30;252.95;;;;;;;14.08;61.37;99704.84;297837;33;886;-78
2022/09/22 00:12:03;;;;;;;381.15;251.20;;;;;;;14.05;61.32;99705.00;301921;32;2674;-78
2022/09/22 00:12:14;;;;;;;381.60;249.93;;;;;;;14.05;61.36;99707.63;299798;32;1735;-79
2022/09/22 00:12:24;;;;;;;382.63;249.03;;;;;;;14.05;61.40;99710.28;298589;33;1472;-79
2022/09/22 00:12:36;;;;;;;383.67;248.07;;;;;;;14.06;61.36;99698.81;298949;32;2510;-79
2022/09/22 00:12:47;;;;;;;379.65;240.40;;;;;;;14.04;61.47;99698.03;299947;32;3589;-79
2022/09/22 00:12:57;;;;;;;378.73;237.75;;;;;;;14.05;61.38;99698.91;298226;32;4283;-78
2022/09/22 00:13:08;;;;;;;380.00;240.47;;;;;;;14.03;61.76;99696.34;299201;33;1308;-79
2022/09/22 00:13:18;;;;;;;379.50;239.75;;;;;;;14.02;62.32;99694.66;298866;32;4445;-80
2022/09/22 00:13:30;;;;;;;381.67;244.07;;;;;;;14.00;62.04;99701.78;295146;33;6050;-80
2022/09/22 00:13:42;;;;;;;381.63;241.98;;;;;;;13.95;62.20;99698.53;291641;34;1540;-80
2022/09/22 00:13:59;;;;;;;381.48;243.45;;;;;;;13.95;62.67;99698.53;294258;33;1317;-80
2022/09/22 00:14:25;;;;;;;378.02;238.98;;;;;;;13.94;62.48;99702.94;292416;33;1014;-79
2022/09/22 00:14:36;;;;;;;374.20;234.23;;;;;;;13.95;62.31;99704.66;288975;34;2931;-79
2022/09/22 00:14:46;;;;;;;377.73;237.13;;;;;;;13.93;62.20;99701.25;284397;34;3851;-79
2022/09/22 00:14:57;;;;;;;383.87;245.33;;;;;;;13.95;62.06;99698.53;278640;35;5231;-79
2022/09/22 00:15:09;;;;;;;382.45;246.80;;;;;;;13.99;61.80;99700.06;277880;35;1394;-79
2022/09/22 00:15:19;;;;;;;383.63;254.82;;;;;;;13.99;61.64;99702.69;280198;34;6808;-79
2022/09/22 00:15:30;;;;;;;384.75;258.48;;;;;;;13.97;62.56;99701.94;278761;35;6612;-79
2022/09/22 00:15:44;;;;;;;387.70;262.93;;;;;;;13.96;62.22;99700.22;276717;35;1702;-79
2022/09/22 00:15:55;;;;;;;388.00;265.25;;;;;;;13.97;61.97;99704.56;277606;35;839;-79
2022/09/22 00:16:08;;;;;;;387.23;268.97;;;;;;;13.98;62.17;99703.63;277543;35;5891;-79
2022/09/22 00:16:21;;;;;;;389.88;274.42;;;;;;;13.97;62.65;99696.66;277271;35;6993;-79
2022/09/22 00:16:36;;;;;;;388.63;273.27;;;;;;;13.97;62.11;99696.66;276058;35;5318;-79
2022/09/22 00:16:51;;;;;;;390.75;274.83;;;;;;;13.95;61.84;99698.53;273274;35;5953;-78
2022/09/22 00:18:46;;;;;;;372.93;249.96;;;;;;;13.95;61.90;99704.66;2502951;27;20546;-79
2022/09/22 00:18:56;;;;;;;385.47;280.50;;;;;;;13.94;62.25;99696.84;350495;28;1312;-79
2022/09/22 00:19:08;;;;;;;387.40;278.83;;;;;;;13.95;62.14;99702.00;349345;28;1011;-79
2022/09/22 00:19:23;;;;;;;388.73;278.63;;;;;;;13.99;61.93;99705.34;347910;28;1614;-79
2022/09/22 00:19:35;;;;;;;390.63;284.98;;;;;;;13.99;61.80;99705.34;349368;28;1511;-79
2022/09/22 00:19:45;;;;;;;390.30;286.10;;;;;;;14.02;61.94;99701.69;349155;28;1514;-79
2022/09/22 00:19:56;;;;;;;390.63;281.13;;;;;;;14.03;61.92;99703.38;347976;28;800;-79
2022/09/22 00:20:06;;;;;;;387.77;276.08;;;;;;;14.01;61.91;99700.00;349128;28;1379;-79
2022/09/22 00:20:17;;;;;;;385.87;273.23;;;;;;;13.99;61.64;99700.06;348027;28;1418;-79
2022/09/22 00:20:27;;;;;;;386.70;276.40;;;;;;;14.01;61.91;99692.94;346997;28;1720;-79
2022/09/22 00:20:38;;;;;;;391.67;279.27;;;;;;;14.01;62.10;99695.56;347808;28;1141;-79
2022/09/22 00:20:48;;;;;;;393.02;282.17;;;;;;;13.98;62.02;99706.25;349366;28;1266;-79
2022/09/22 00:21:06;;;;;;;389.83;274.35;;;;;;;13.96;62.45;99700.22;347802;28;1249;-79
2022/09/22 00:21:18;;;;;;;385.80;267.38;;;;;;;13.93;62.22;99698.63;347051;28;983;-79
2022/09/22 00:21:29;;;;;;;386.20;270.73;;;;;;;13.95;62.02;99703.78;347836;28;1302;-79
2022/09/22 00:21:40;;;;;;;384.98;270.33;;;;;;;13.94;62.09;99697.69;349046;28;1658;-79
2022/09/22 00:21:50;;;;;;;387.47;274.73;;;;;;;13.96;62.25;99700.22;347690;28;1322;-79
2022/09/22 00:22:02;;;;;;;388.70;272.55;;;;;;;13.97;62.17;99694.88;346341;28;1277;-79
2022/09/22 00:22:12;;;;;;;388.65;269.52;;;;;;;13.96;62.12;99701.09;346737;28;1567;-79
2022/09/22 00:22:23;;;;;;;388.90;269.08;;;;;;;13.97;61.99;99707.19;348139;28;1134;-79
2022/09/22 00:22:33;;;;;;;391.83;276.33;;;;;;;13.96;62.05;99698.44;349048;28;1368;-79
2022/09/22 00:22:48;;;;;;;394.42;282.25;;;;;;;13.99;62.01;99700.06;349134;28;1382;-79
2022/09/22 00:22:59;;;;;;;391.00;277.50;;;;;;;13.99;62.17;99700.06;346661;28;872;-79
2022/09/22 00:23:09;;;;;;;387.10;271.33;;;;;;;13.99;62.17;99700.06;347222;28;1196;-79
2022/09/22 00:23:23;;;;;;;387.05;268.02;;;;;;;13.97;61.88;99701.94;345144;28;1248;-79
2022/09/22 00:23:34;;;;;;;385.33;269.15;;;;;;;13.95;61.96;99698.53;344986;28;1362;-79
2022/09/22 00:23:46;;;;;;;385.83;269.70;;;;;;;13.96;61.76;99697.59;346432;28;1283;-79
2022/09/22 00:23:56;;;;;;;386.17;270.15;;;;;;;13.97;61.64;99699.31;346527;28;1331;-79
2022/09/22 00:24:07;;;;;;;387.88;272.88;;;;;;;13.95;61.77;99694.13;344014;28;1174;-78
2022/09/22 00:24:18;;;;;;;389.07;277.00;;;;;;;13.97;61.75;99697.53;343408;28;1258;-78
2022/09/22 00:24:28;;;;;;;388.77;276.25;;;;;;;13.99;61.87;99700.91;347525;28;1457;-78
2022/09/22 00:24:39;;;;;;;386.60;271.83;;;;;;;14.00;61.93;99693.88;346895;28;1318;-78
2022/09/22 00:24:49;;;;;;;384.48;265.77;;;;;;;14.00;61.82;99696.50;346653;28;1409;-79
2022/09/22 00:25:00;;;;;;;386.43;269.47;;;;;;;13.97;61.71;99692.25;343692;28;1220;-79
2022/09/22 00:25:10;;;;;;;388.83;275.92;;;;;;;14.00;61.83;99696.50;347046;28;2035;-79
2022/09/22 00:25:21;;;;;;;390.47;283.50;;;;;;;14.03;61.44;99700.75;347648;28;1178;-79
2022/09/22 00:25:32;;;;;;;389.52;281.15;;;;;;;14.01;61.72;99703.47;346330;28;1227;-79
2022/09/22 00:25:43;;;;;;;386.33;276.83;;;;;;;14.00;61.59;99693.88;343812;28;1362;-78
2022/09/22 00:25:53;;;;;;;384.50;274.40;;;;;;;13.99;61.83;99694.81;346338;28;1410;-78
2022/09/22 00:26:11;;;;;;;383.88;271.30;;;;;;;14.02;61.57;99693.78;342374;28;1241;-78
2022/09/22 00:26:22;;;;;;;382.67;270.75;;;;;;;14.01;61.68;99692.94;342246;28;1376;-79
2022/09/22 00:26:33;;;;;;;382.67;271.75;;;;;;;14.01;61.56;99697.34;340063;29;1368;-79
2022/09/22 00:26:44;;;;;;;385.73;275.40;;;;;;;13.99;61.62;99700.91;335636;29;1375;-78
2022/09/22 00:26:56;;;;;;;385.77;273.85;;;;;;;13.99;61.65;99694.81;336830;29;1727;-78
2022/09/22 00:27:08;;;;;;;384.90;273.40;;;;;;;14.01;61.63;99690.31;339162;28;1381;-78
2022/09/22 00:27:18;;;;;;;387.08;279.20;;;;;;;14.04;62.05;99690.16;335191;29;1154;-78
2022/09/22 00:27:28;;;;;;;388.65;281.02;;;;;;;14.04;62.08;99698.03;341139;29;1445;-78
2022/09/22 00:27:39;;;;;;;387.93;272.77;;;;;;;14.05;61.65;99701.53;338723;29;1891;-78
2022/09/22 00:27:53;;;;;;;388.40;272.73;;;;;;;14.06;62.16;99692.69;335461;29;1185;-78
2022/09/22 00:28:03;;;;;;;385.67;270.08;;;;;;;14.04;61.53;99692.78;332864;29;990;-78
2022/09/22 00:28:14;;;;;;;384.97;270.63;;;;;;;14.01;61.85;99692.94;336874;29;1237;-79
2022/09/22 00:28:25;;;;;;;384.25;268.88;;;;;;;14.00;61.51;99688.63;337824;29;1422;-78
2022/09/22 00:28:37;;;;;;;386.75;269.27;;;;;;;14.01;61.80;99692.94;337662;29;1457;-78
2022/09/22 00:28:47;;;;;;;387.95;271.38;;;;;;;14.00;61.79;99693.88;337796;29;1310;-78
2022/09/22 00:29:00;;;;;;;387.35;271.02;;;;;;;13.98;61.98;99688.69;335750;29;2068;-78
2022/09/22 00:29:11;;;;;;;386.45;270.23;;;;;;;13.93;62.29;99680.19;332981;29;2223;-79
2022/09/22 00:29:22;;;;;;;385.25;265.42;;;;;;;13.92;62.45;99691.66;327695;29;1824;-78
2022/09/22 00:29:33;;;;;;;383.40;255.88;;;;;;;13.92;62.09;99693.44;324945;30;1405;-78
2022/09/22 00:29:43;;;;;;;382.27;254.77;;;;;;;13.90;61.81;99690.03;327240;30;2092;-78
2022/09/22 00:29:54;;;;;;;380.15;252.85;;;;;;;13.90;61.79;99690.03;329454;29;1756;-78
2022/09/22 00:30:05;;;;;;;379.17;251.90;;;;;;;13.89;62.15;99688.34;328160;30;1291;-78
2022/09/22 00:30:16;;;;;;;379.60;249.18;;;;;;;13.90;62.17;99692.66;324215;30;1366;-78
2022/09/22 00:30:26;;;;;;;382.70;254.97;;;;;;;13.91;62.63;99689.09;324953;30;1521;-79
2022/09/22 00:30:41;;;;;;;385.70;261.63;;;;;;;13.91;62.87;99686.47;323877;30;1777;-79
2022/09/22 00:30:53;;;;;;;386.92;268.23;;;;;;;13.87;62.52;99691.03;321859;30;2302;-80
2022/09/22 00:31:05;;;;;;;391.35;279.38;;;;;;;13.85;62.61;99686.81;322140;30;1561;-79
2022/09/22 00:31:23;;;;;;;392.40;283.42;;;;;;;13.88;62.14;99691.88;321468;30;1366;-79
2022/09/22 00:31:33;;;;;;;386.23;274.23;;;;;;;13.84;62.86;99690.38;319869;30;822;-79
2022/09/22 00:31:43;;;;;;;383.30;270.48;;;;;;;13.83;63.07;99688.69;317173;31;2550;-79
2022/09/22 00:31:54;;;;;;;388.37;274.97;;;;;;;13.86;63.26;99693.78;315138;30;2623;-79
2022/09/22 00:32:04;;;;;;;389.38;277.35;;;;;;;13.85;62.44;99687.69;315483;31;1399;-79
2022/09/22 00:32:15;;;;;;;391.70;282.33;;;;;;;13.87;62.58;99691.03;318538;31;1958;-79
2022/09/22 00:32:26;;;;;;;390.52;283.23;;;;;;;13.90;62.51;99687.41;321333;30;1321;-79
2022/09/22 00:32:39;;;;;;;390.70;279.25;;;;;;;13.91;62.39;99692.59;319313;30;2108;-79
2022/09/22 00:32:49;;;;;;;389.85;277.05;;;;;;;13.92;62.06;99688.16;314198;31;1335;-79
2022/09/22 00:33:00;;;;;;;389.33;278.17;;;;;;;13.89;61.91;99693.59;308652;32;1269;-79
2022/09/22 00:33:10;;;;;;;392.27;288.80;;;;;;;13.89;62.07;99688.34;308509;31;2877;-78
2022/09/22 00:33:21;;;;;;;393.10;290.58;;;;;;;13.88;62.53;99686.63;306610;32;3441;-79
2022/09/22 00:33:31;;;;;;;392.33;285.83;;;;;;;13.84;62.09;99687.75;303203;32;1392;-79
2022/09/22 00:33:43;;;;;;;392.65;282.25;;;;;;;13.83;62.69;99691.31;305672;32;3489;-79
2022/09/22 00:33:54;;;;;;;394.85;288.95;;;;;;;13.81;62.43;99691.41;305691;32;3198;-79
2022/09/22 00:34:05;;;;;;;395.13;293.40;;;;;;;13.78;62.29;99691.56;306380;32;1237;-79
2022/09/22 00:34:20;;;;;;;392.43;289.47;;;;;;;13.81;62.46;99690.53;306224;32;1540;-79
2022/09/22 00:34:30;;;;;;;389.63;282.73;;;;;;;13.82;62.29;99690.47;303177;32;1306;-79
2022/09/22 00:34:41;;;;;;;388.77;280.08;;;;;;;13.82;62.54;99685.19;299805;32;2129;-78
2022/09/22 00:34:51;;;;;;;390.80;283.53;;;;;;;13.83;62.62;99691.31;298595;32;2258;-79
2022/09/22 00:35:02;;;;;;;393.10;285.98;;;;;;;13.84;62.67;99690.38;301325;32;822;-79
2022/09/22 00:35:12;;;;;;;394.17;285.10;;;;;;;13.84;62.18;99690.38;301242;32;3037;-79
2022/09/22 00:35:23;;;;;;;393.17;280.10;;;;;;;13.86;62.36;99693.78;298603;32;3857;-79
2022/09/22 00:35:36;;;;;;;391.63;275.95;;;;;;;13.82;62.22;99686.97;299341;33;949;-79
2022/09/22 00:35:58;;;;;;;388.55;271.52;;;;;;;13.87;62.35;99696.31;294645;33;1330;-79
2022/09/22 00:36:09;;;;;;;383.67;264.83;;;;;;;13.87;62.21;99696.31;294131;33;4084;-79
2022/09/22 00:36:21;;;;;;;385.40;265.47;;;;;;;13.89;61.90;99699.69;293201;33;804;-79
2022/09/22 00:36:32;;;;;;;388.30;269.73;;;;;;;13.91;62.08;99691.72;290204;34;833;-80
2022/09/22 00:36:43;;;;;;;390.63;273.37;;;;;;;13.91;62.00;99694.38;288313;34;3472;-80
2022/09/22 00:36:53;;;;;;;389.20;270.95;;;;;;;13.92;61.78;99693.44;288986;33;3433;-80
2022/09/22 00:37:04;;;;;;;388.30;268.75;;;;;;;13.90;62.73;99693.50;289507;34;856;-80
2022/09/22 00:37:14;;;;;;;391.37;269.87;;;;;;;13.88;62.19;99697.16;285633;34;3567;-79
2022/09/22 00:37:25;;;;;;;393.30;271.55;;;;;;;13.87;62.41;99695.44;286659;34;4074;-79
2022/09/22 00:37:35;;;;;;;394.00;274.13;;;;;;;13.85;62.19;99687.69;287202;33;5419;-79
2022/09/22 00:37:46;;;;;;;390.13;270.45;;;;;;;13.86;62.54;99693.78;286601;34;1347;-79
2022/09/22 00:37:56;;;;;;;388.50;270.40;;;;;;;13.84;62.30;99691.22;282624;34;6858;-79
2022/09/22 00:38:07;;;;;;;385.70;263.02;;;;;;;13.82;62.26;99694.88;282307;34;6393;-79
2022/09/22 00:38:17;;;;;;;385.33;262.60;;;;;;;13.80;62.40;99694.09;285588;34;1248;-79
2022/09/22 00:38:28;;;;;;;384.10;259.75;;;;;;;13.79;62.43;99692.41;281461;34;5586;-79
2022/09/22 00:38:38;;;;;;;383.45;258.20;;;;;;;13.80;62.30;99696.75;280409;34;6497;-79
2022/09/22 00:38:50;;;;;;;383.63;257.87;;;;;;;13.80;62.43;99694.09;282777;35;1473;-78
2022/09/22 00:39:00;;;;;;;385.83;262.85;;;;;;;13.80;62.20;99697.59;278994;35;981;-79
2022/09/22 00:40:54;;;;;;;374.44;254.52;;;;;;;13.75;62.51;99694.34;2483839;27;20565;-78
2022/09/22 00:41:04;;;;;;;389.90;288.53;;;;;;;13.78;62.43;99691.56;350504;28;1203;-78
2022/09/22 00:41:17;;;;;;;391.23;292.98;;;;;;;13.81;62.44;99696.66;348951;28;1242;-78
2022/09/22 00:41:30;;;;;;;392.38;291.63;;;;;;;13.81;62.34;99699.28;347699;28;833;-78
2022/09/22 00:41:43;;;;;;;394.88;295.00;;;;;;;13.80;62.32;99694.09;344809;28;948;-80
2022/09/22 00:41:54;;;;;;;396.05;292.73;;;;;;;13.80;62.19;99694.09;345011;28;1431;-78
2022/09/22 00:42:04;;;;;;;394.85;293.13;;;;;;;13.82;62.45;99692.25;346219;28;888;-77
2022/09/22 00:42:15;;;;;;;395.27;290.37;;;;;;;13.82;62.46;99697.50;344702;28;1389;-77
2022/09/22 00:42:26;;;;;;;390.95;282.38;;;;;;;13.83;62.00;99693.94;346178;28;1344;-77
2022/09/22 00:42:36;;;;;;;389.00;279.30;;;;;;;13.85;62.15;99695.56;348572;28;1655;-77
2022/09/22 00:42:48;;;;;;;390.38;283.45;;;;;;;13.87;62.44;99695.44;347527;28;1376;-78
2022/09/22 00:43:18;;;;;;;392.25;287.23;;;;;;;13.86;61.93;99699.88;349203;28;993;-78
2022/09/22 00:43:29;;;;;;;388.98;282.23;;;;;;;13.87;62.41;99695.44;348969;28;1582;-79
2022/09/22 00:43:40;;;;;;;392.92;280.85;;;;;;;13.85;62.91;99692.09;347859;28;1286;-79
2022/09/22 00:44:16;;;;;;;395.00;280.63;;;;;;;13.80;62.83;99694.09;344633;28;1412;-79
2022/09/22 00:44:38;;;;;;;392.92;293.73;;;;;;;13.74;62.11;99694.44;343506;28;1094;-79
2022/09/22 00:44:48;;;;;;;391.48;289.35;;;;;;;13.73;62.21;99700.63;342400;28;1124;-79
2022/09/22 00:45:00;;;;;;;391.37;288.57;;;;;;;13.71;62.75;99692.81;344950;28;1340;-79
2022/09/22 00:45:11;;;;;;;397.88;295.92;;;;;;;13.70;62.63;99692.88;345076;28;1309;-79
2022/09/22 00:45:21;;;;;;;399.48;299.83;;;;;;;13.68;62.45;99695.59;344599;28;1360;-79
2022/09/22 00:45:32;;;;;;;399.73;296.30;;;;;;;13.70;62.91;99692.88;342929;28;1312;-79
2022/09/22 00:45:42;;;;;;;396.95;293.08;;;;;;;13.71;62.73;99697.22;342097;28;1328;-79
2022/09/22 00:46:25;;;;;;;397.83;292.30;;;;;;;13.73;62.85;99698.00;341070;29;882;-79
2022/09/22 00:46:36;;;;;;;392.23;289.42;;;;;;;13.77;61.92;99704.78;340675;28;1108;-79
2022/09/22 00:46:49;;;;;;;393.92;291.98;;;;;;;13.74;62.20;99697.06;344744;28;1331;-79
2022/09/22 00:47:16;;;;;;;395.70;296.80;;;;;;;13.75;62.25;99701.38;344582;28;1450;-78
2022/09/22 00:47:38;;;;;;;389.00;289.92;;;;;;;13.72;62.07;99702.41;339545;29;1292;-79
2022/09/22 00:47:49;;;;;;;393.23;285.92;;;;;;;13.68;62.87;99689.47;337168;29;1048;-79
2022/09/22 00:48:00;;;;;;;394.35;286.80;;;;;;;13.65;63.00;99701.00;337226;29;1302;-79
2022/09/22 00:48:10;;;;;;;394.55;291.45;;;;;;;13.63;63.03;99687.94;334501;29;1247;-79
2022/09/22 00:48:22;;;;;;;392.63;288.43;;;;;;;13.62;63.18;99696.75;334342;29;1240;-79
2022/09/22 00:48:33;;;;;;;394.08;286.50;;;;;;;13.64;62.64;99700.16;333046;29;1683;-79
2022/09/22 00:48:47;;;;;;;393.55;283.83;;;;;;;13.63;62.60;99693.19;333412;29;1368;-80
2022/09/22 00:49:00;;;;;;;392.20;283.88;;;;;;;13.64;62.44;99704.56;331205;29;1441;-79
2022/09/22 00:49:10;;;;;;;391.98;283.75;;;;;;;13.61;62.57;99695.06;332003;29;1500;-79
2022/09/22 00:49:25;;;;;;;391.52;280.70;;;;;;;13.55;62.63;99695.38;334205;29;1382;-79
2022/09/22 00:49:56;;;;;;;392.85;288.13;;;;;;;13.60;62.81;99693.34;334228;29;1730;-79
2022/09/22 00:50:18;;;;;;;384.52;278.34;;;;;;;13.64;62.63;99696.69;333169;29;1000;-79
2022/09/22 00:50:28;;;;;;;388.30;291.27;;;;;;;13.64;62.69;99692.28;330700;29;1073;-79
2022/09/22 00:50:39;;;;;;;388.77;293.55;;;;;;;13.65;63.05;99690.50;328140;30;1418;-79
2022/09/22 00:50:50;;;;;;;392.80;294.70;;;;;;;13.65;62.95;99686.09;329359;29;1528;-79
2022/09/22 00:51:01;;;;;;;394.15;291.08;;;;;;;13.68;62.85;99689.47;329858;29;1663;-79
2022/09/22 00:51:12;;;;;;;397.67;296.95;;;;;;;13.68;62.52;99695.59;328106;30;1325;-79
2022/09/22 00:51:28;;;;;;;394.30;288.92;;;;;;;13.69;62.81;99691.19;322344;30;1285;-79
2022/09/22 00:51:39;;;;;;;391.75;279.38;;;;;;;13.69;62.92;99692.03;319600;30;1091;-79
2022/09/22 00:51:50;;;;;;;392.60;279.98;;;;;;;13.70;62.39;99692.88;322164;30;2321;-79
2022/09/22 00:52:00;;;;;;;394.33;285.73;;;;;;;13.70;62.65;99687.63;321143;30;1642;-79
2022/09/22 00:52:12;;;;;;;392.60;282.07;;;;;;;13.69;62.54;99685.94;321148;30;1226;-79
2022/09/22 00:52:26;;;;;;;391.02;277.17;;;;;;;13.69;62.73;99696.44;319621;30;1403;-79
2022/09/22 00:52:42;;;;;;;389.15;272.45;;;;;;;13.66;62.77;99684.31;320634;30;1405;-79
2022/09/22 00:52:56;;;;;;;389.75;278.35;;;;;;;13.64;62.59;99694.06;314912;31;1367;-79
2022/09/22 00:53:08;;;;;;;389.17;275.10;;;;;;;13.65;63.12;99691.34;318790;30;2330;-79
2022/09/22 00:53:19;;;;;;;390.55;274.88;;;;;;;13.64;62.56;99694.06;314147;31;2201;-78
2022/09/22 00:53:30;;;;;;;391.25;274.90;;;;;;;13.62;62.85;99691.50;310928;31;2497;-78
2022/09/22 00:53:41;;;;;;;393.15;275.17;;;;;;;13.58;63.00;99689.09;312751;31;1267;-79
2022/09/22 00:53:52;;;;;;;393.93;272.03;;;;;;;13.57;63.54;99690.88;315749;31;2842;-79
2022/09/22 00:54:04;;;;;;;397.23;279.45;;;;;;;13.55;63.14;99692.75;314523;31;2672;-79
2022/09/22 00:54:14;;;;;;;399.30;284.85;;;;;;;13.55;63.20;99692.75;312389;31;2018;-79
2022/09/22 00:54:25;;;;;;;397.35;281.63;;;;;;;13.57;63.35;99687.41;308446;32;1246;-79
2022/09/22 00:54:35;;;;;;;395.67;280.37;;;;;;;13.58;63.38;99687.31;311414;31;1383;-79
2022/09/22 00:54:46;;;;;;;394.02;275.42;;;;;;;13.59;62.97;99693.44;310041;31;2027;-80
2022/09/22 00:54:58;;;;;;;394.98;278.73;;;;;;;13.59;63.17;99686.41;309431;31;1759;-79
2022/09/22 00:55:17;;;;;;;393.48;277.23;;;;;;;13.59;63.07;99696.91;303171;32;1442;-79
2022/09/22 00:55:39;;;;;;;389.65;271.70;;;;;;;13.64;62.60;99694.06;299816;32;2781;-79
2022/09/22 00:56:02;;;;;;;387.08;266.42;;;;;;;13.71;62.80;99689.31;297863;32;3209;-79
2022/09/22 00:56:15;;;;;;;384.45;263.92;;;;;;;13.71;62.70;99684.91;299755;32;3168;-79
2022/09/22 00:56:30;;;;;;;384.82;261.32;;;;;;;13.72;62.53;99691.03;297630;33;1176;-79
2022/09/22 00:57:04;;;;;;;386.77;256.23;;;;;;;13.68;62.75;99689.47;294100;33;1282;-79
2022/09/22 00:57:18;;;;;;;383.52;257.00;;;;;;;13.63;62.96;99687.94;298322;32;4080;-78
2022/09/22 00:57:30;;;;;;;386.52;259.67;;;;;;;13.64;63.05;99689.63;291054;33;5011;-78
2022/09/22 00:57:41;;;;;;;390.06;268.26;;;;;;;13.70;63.22;99692.88;291009;34;1302;-78
2022/09/22 00:57:51;;;;;;;391.40;273.13;;;;;;;13.67;62.63;99687.78;290306;33;4253;-78
2022/09/22 00:58:02;;;;;;;392.03;269.23;;;;;;;13.65;62.72;99695.75;290138;33;4149;-78
2022/09/22 00:58:15;;;;;;;391.48;260.92;;;;;;;13.67;62.82;99693.88;288230;33;4498;-78
2022/09/22 00:58:31;;;;;;;383.77;249.35;;;;;;;13.61;62.72;99689.81;288070;34;1300;-78
2022/09/22 00:58:49;;;;;;;376.35;242.93;;;;;;;13.64;63.05;99694.91;289720;34;1255;-78
2022/09/22 00:59:02;;;;;;;376.20;238.25;;;;;;;13.61;63.45;99689.81;284800;34;3420;-79
2022/09/22 00:59:14;;;;;;;379.08;243.25;;;;;;;13.61;63.37;99681.91;283207;34;2052;-79
2022/09/22 00:59:25;;;;;;;382.90;247.45;;;;;;;13.64;63.73;99689.63;280771;35;1466;-79
2022/09/22 00:59:35;;;;;;;385.17;248.73;;;;;;;13.65;62.93;99691.34;278517;35;5460;-79
2022/09/22 00:59:46;;;;;;;383.77;243.97;;;;;;;13.68;62.75;99689.47;276190;35;7912;-79
2022/09/22 00:59:57;;;;;;;384.67;250.05;;;;;;;13.69;63.05;99692.03;273798;36;1451;-79
2022/09/22 01:00:08;;;;;;;388.58;265.08;;;;;;;13.68;62.75;99689.47;271120;36;6439;-79
2022/09/22 01:00:19;;;;;;;395.00;282.85;;;;;;;13.69;62.24;99691.19;270050;36;6064;-79